Time;durP1;ratioP1;P1;durP2;ratioP2;P2;SDS_P1;SDS_P2;PMS_P1;PMS_P2;Temp;Humidity;BMP_temperature;BMP_pressure;BME280_temperature;BME280_humidity;BME280_pressure;Samples;Min_cycle;Max_cycle;Signal;HPM_P1;HPM_P2
2022/10/30 00:01:43;;;;;;;5.03;2.33;;;12.40;99.90;;;;;;5072721;28;20823;-52
2022/10/30 00:04:10;;;;;;;7.17;2.60;;;12.30;99.90;;;;;;5071511;28;20472;-52
2022/10/30 00:06:37;;;;;;;4.10;2.30;;;12.10;99.90;;;;;;5072030;28;20617;-52
2022/10/30 00:09:04;;;;;;;6.17;2.67;;;12.20;99.90;;;;;;5072295;28;20458;-51
2022/10/30 00:11:30;;;;;;;3.90;2.10;;;12.30;99.90;;;;;;5072036;28;20534;-52
2022/10/30 00:13:57;;;;;;;4.60;2.07;;;12.00;99.90;;;;;;5072427;28;20497;-51
2022/10/30 00:16:25;;;;;;;5.10;2.47;;;11.90;99.90;;;;;;5072296;28;20489;-51
2022/10/30 00:18:54;;;;;;;7.30;2.30;;;12.00;99.90;;;;;;5072776;28;20450;-51
2022/10/30 00:21:21;;;;;;;4.37;2.20;;;12.10;99.90;;;;;;5072411;28;20442;-51
2022/10/30 00:23:49;;;;;;;6.27;1.90;;;12.20;99.90;;;;;;5071842;28;20460;-52
2022/10/30 00:26:16;;;;;;;4.63;2.30;;;12.20;99.90;;;;;;5072199;28;20470;-52
2022/10/30 00:28:43;;;;;;;5.00;2.47;;;12.00;99.90;;;;;;5072117;28;20761;-51
2022/10/30 00:31:10;;;;;;;11.30;2.77;;;12.10;99.90;;;;;;5072065;28;20475;-51
2022/10/30 00:33:37;;;;;;;8.07;2.60;;;12.10;99.90;;;;;;5071726;28;20474;-51
2022/10/30 00:36:06;;;;;;;6.27;2.47;;;12.20;99.90;;;;;;5072096;28;20446;-52
2022/10/30 00:38:33;;;;;;;7.23;2.10;;;12.20;99.90;;;;;;5072133;28;20457;-52
2022/10/30 00:41:00;;;;;;;7.80;2.87;;;12.30;99.90;;;;;;5071792;28;21059;-52
2022/10/30 00:43:29;;;;;;;4.60;3.00;;;12.30;99.90;;;;;;5071439;28;20555;-51
2022/10/30 00:45:58;;;;;;;5.00;2.20;;;12.20;99.90;;;;;;5072037;28;20479;-51
2022/10/30 00:48:26;;;;;;;2.43;1.77;;;12.10;99.90;;;;;;5071866;28;20438;-52
2022/10/30 00:50:54;;;;;;;4.90;2.30;;;11.90;99.90;;;;;;5071741;28;20465;-51
2022/10/30 00:53:23;;;;;;;4.70;1.97;;;11.90;99.90;;;;;;5071392;28;20556;-52
2022/10/30 00:55:54;;;;;;;8.80;2.20;;;12.10;99.90;;;;;;5071619;28;20493;-52
2022/10/30 00:58:26;;;;;;;7.80;2.70;;;12.20;99.90;;;;;;5071946;28;20434;-53
2022/10/30 01:00:56;;;;;;;3.33;2.30;;;12.20;99.90;;;;;;5071653;28;20527;-51
2022/10/30 01:03:25;;;;;;;5.17;2.30;;;12.20;99.90;;;;;;5070831;28;20456;-51
2022/10/30 01:05:55;;;;;;;9.60;3.07;;;12.20;99.90;;;;;;5071675;28;20478;-51
2022/10/30 01:08:23;;;;;;;4.50;2.50;;;12.10;99.90;;;;;;5071405;28;20501;-52
2022/10/30 01:10:50;;;;;;;4.27;2.23;;;12.10;99.90;;;;;;5071266;28;20449;-52
2022/10/30 01:13:19;;;;;;;8.03;3.33;;;12.10;99.90;;;;;;5071484;28;20468;-52
2022/10/30 01:15:58;;;;;;;4.77;2.60;;;11.90;99.90;;;;;;5071519;28;20528;-51
2022/10/30 01:18:38;;;;;;;6.97;2.47;;;11.80;99.90;;;;;;5071342;28;20881;-51
2022/10/30 01:21:25;;;;;;;4.33;1.83;;;11.90;99.90;;;;;;5071588;28;20445;-51
2022/10/30 01:24:07;;;;;;;2.57;1.83;;;12.00;99.90;;;;;;5071208;28;20467;-52
2022/10/30 01:26:43;;;;;;;8.77;1.70;;;11.90;99.90;;;;;;5071476;28;20509;-51
2022/10/30 01:29:22;;;;;;;6.20;1.93;;;12.00;99.90;;;;;;5071484;28;20443;-52
2022/10/30 01:32:06;;;;;;;5.40;2.50;;;12.00;99.90;;;;;;5071167;28;20537;-51
2022/10/30 01:34:44;;;;;;;5.47;2.10;;;12.00;99.90;;;;;;5071217;28;20527;-51
2022/10/30 01:37:17;;;;;;;3.90;2.60;;;11.90;99.90;;;;;;5071274;28;20527;-53
2022/10/30 01:39:46;;;;;;;7.37;2.40;;;12.00;99.90;;;;;;5071660;28;20526;-52
2022/10/30 01:42:51;;;;;;;6.00;2.90;;;12.00;99.90;;;;;;5071110;28;20464;-51
2022/10/30 01:45:26;;;;;;;8.23;1.80;;;12.00;99.90;;;;;;5055655;28;20961;-51
2022/10/30 01:48:17;;;;;;;6.07;2.10;;;12.00;99.90;;;;;;5071337;28;20474;-52
2022/10/30 01:50:51;;;;;;;4.07;2.53;;;12.00;99.90;;;;;;5071144;28;20443;-51
2022/10/30 01:53:29;;;;;;;8.07;2.93;;;12.10;99.90;;;;;;5127077;22;20586;-48
2022/10/30 01:56:04;;;;;;;7.47;2.43;;;12.20;99.90;;;;;;5071050;28;20922;-50
2022/10/30 01:58:40;;;;;;;4.60;2.03;;;12.00;99.90;;;;;;5071054;28;20961;-48
2022/10/30 02:01:08;;;;;;;7.27;2.50;;;11.70;99.90;;;;;;5070819;28;20808;-48
2022/10/30 02:03:35;;;;;;;7.40;2.70;;;11.70;99.90;;;;;;5070407;28;20466;-49
2022/10/30 02:06:02;;;;;;;5.97;2.30;;;11.60;99.90;;;;;;5071093;28;20537;-49
2022/10/30 02:08:29;;;;;;;7.40;2.67;;;11.60;99.90;;;;;;5070895;28;20484;-48
2022/10/30 02:10:56;;;;;;;4.17;2.40;;;11.80;99.90;;;;;;5070595;28;20519;-48
2022/10/30 02:13:24;;;;;;;4.30;2.50;;;11.80;99.90;;;;;;5070741;28;21056;-48
2022/10/30 02:15:51;;;;;;;4.50;2.30;;;11.80;99.90;;;;;;5070940;28;20530;-48
2022/10/30 02:18:18;;;;;;;5.93;2.60;;;11.30;99.90;;;;;;5070993;28;20931;-48
2022/10/30 02:20:47;;;;;;;6.60;2.27;;;11.30;99.90;;;;;;5071022;28;20448;-49
2022/10/30 02:23:17;;;;;;;5.20;2.37;;;11.00;99.90;;;;;;5070914;28;20512;-48
2022/10/30 02:25:44;;;;;;;5.63;2.77;;;11.00;99.90;;;;;;5070702;28;20858;-50
2022/10/30 02:28:11;;;;;;;4.60;2.20;;;11.00;99.90;;;;;;5070616;28;20564;-48
2022/10/30 02:30:39;;;;;;;8.93;4.27;;;11.10;99.90;;;;;;5074344;28;20441;-48
2022/10/30 02:33:06;;;;;;;3.73;2.00;;;11.10;99.90;;;;;;5073863;28;20559;-48
2022/10/30 02:35:34;;;;;;;3.47;2.43;;;11.20;99.90;;;;;;5074383;28;20946;-48
2022/10/30 02:38:02;;;;;;;4.57;2.60;;;10.80;99.90;;;;;;5074296;28;20445;-48
2022/10/30 02:40:29;;;;;;;4.53;2.97;;;10.50;99.90;;;;;;5074521;28;20524;-48
2022/10/30 02:42:56;;;;;;;6.10;2.33;;;10.40;99.90;;;;;;5073730;28;20468;-50
2022/10/30 02:45:23;;;;;;;4.47;2.67;;;10.30;99.90;;;;;;5074136;28;20531;-48
2022/10/30 02:47:50;;;;;;;4.30;2.20;;;10.40;99.90;;;;;;5073936;28;20477;-48
2022/10/30 02:50:17;;;;;;;3.17;2.37;;;10.60;99.90;;;;;;5073852;28;20961;-48
2022/10/30 02:52:44;;;;;;;8.13;2.70;;;10.40;99.90;;;;;;5073799;28;20548;-48
2022/10/30 02:55:12;;;;;;;4.37;2.30;;;10.40;99.90;;;;;;5073396;28;20441;-51
2022/10/30 02:57:39;;;;;;;5.77;2.80;;;10.50;99.90;;;;;;5073694;28;20445;-50
2022/10/30 03:00:07;;;;;;;7.07;2.80;;;10.80;99.90;;;;;;5073671;28;20437;-48
2022/10/30 03:02:34;;;;;;;4.27;2.63;;;10.90;99.90;;;;;;5073726;28;20521;-48
2022/10/30 03:05:00;;;;;;;5.27;2.60;;;11.00;99.90;;;;;;5073152;28;20532;-50
2022/10/30 03:07:27;;;;;;;4.47;2.30;;;11.00;99.90;;;;;;5073763;28;20862;-48
2022/10/30 03:09:54;;;;;;;7.57;2.80;;;10.90;99.90;;;;;;5073760;28;20465;-48
2022/10/30 03:12:22;;;;;;;6.73;2.53;;;11.00;99.90;;;;;;5073495;28;20535;-48
2022/10/30 03:14:49;;;;;;;4.80;2.43;;;11.10;99.90;;;;;;5073481;28;20461;-48
2022/10/30 03:17:16;;;;;;;9.00;2.30;;;11.10;99.90;;;;;;5073566;28;20522;-48
2022/10/30 03:19:43;;;;;;;6.03;2.30;;;11.00;99.90;;;;;;5073415;28;20565;-48
2022/10/30 03:22:10;;;;;;;5.87;2.27;;;10.70;99.90;;;;;;5073856;28;20787;-48
2022/10/30 03:24:37;;;;;;;5.53;3.20;;;10.60;99.90;;;;;;5073491;28;20460;-48
2022/10/30 03:27:04;;;;;;;6.90;2.27;;;10.70;99.90;;;;;;5073105;28;20450;-48
2022/10/30 03:29:32;;;;;;;3.70;2.80;;;11.00;99.90;;;;;;5073391;28;21015;-51
2022/10/30 03:31:59;;;;;;;5.90;2.80;;;10.80;99.90;;;;;;5073645;28;20867;-49
2022/10/30 03:34:27;;;;;;;4.77;2.77;;;10.70;99.90;;;;;;5072857;28;21005;-48
2022/10/30 03:36:54;;;;;;;6.03;2.17;;;10.80;99.90;;;;;;5073315;28;20443;-48
2022/10/30 03:39:20;;;;;;;5.33;2.50;;;10.90;99.90;;;;;;5073416;28;20468;-48
2022/10/30 03:41:47;;;;;;;8.17;3.10;;;10.90;99.90;;;;;;5071928;28;20965;-50
2022/10/30 03:44:14;;;;;;;5.30;2.93;;;10.60;99.90;;;;;;5073030;28;20453;-47
2022/10/30 03:46:42;;;;;;;5.67;2.57;;;10.60;99.90;;;;;;5072782;28;20821;-48
2022/10/30 03:49:09;;;;;;;6.00;2.47;;;10.60;99.90;;;;;;5073199;28;20484;-48
2022/10/30 03:51:36;;;;;;;5.63;3.57;;;10.60;99.90;;;;;;5072549;28;20957;-49
2022/10/30 03:54:03;;;;;;;4.13;2.30;;;10.40;99.90;;;;;;5072698;28;20475;-48
2022/10/30 03:56:30;;;;;;;4.50;2.43;;;10.20;99.90;;;;;;5073071;28;20444;-48
2022/10/30 03:58:57;;;;;;;6.30;2.53;;;10.50;99.90;;;;;;5072847;28;20455;-48
2022/10/30 04:01:23;;;;;;;9.27;3.10;;;10.70;99.90;;;;;;5072770;28;20813;-48
2022/10/30 04:03:52;;;;;;;6.80;2.70;;;10.90;99.90;;;;;;5072220;28;20549;-47
2022/10/30 04:06:18;;;;;;;5.30;2.33;;;10.90;99.90;;;;;;5072692;28;20458;-48
2022/10/30 04:08:45;;;;;;;3.43;2.13;;;10.80;99.90;;;;;;5072621;28;21048;-49
2022/10/30 04:11:12;;;;;;;7.43;2.63;;;10.80;99.90;;;;;;5072516;28;20441;-48
2022/10/30 04:13:39;;;;;;;7.27;2.30;;;10.60;99.90;;;;;;5072433;28;20460;-48
2022/10/30 04:16:06;;;;;;;6.10;2.67;;;10.30;99.90;;;;;;5072689;28;20821;-48
2022/10/30 04:18:33;;;;;;;3.60;2.60;;;9.90;99.90;;;;;;5072338;28;20930;-48
2022/10/30 04:21:01;;;;;;;5.43;2.30;;;10.10;99.90;;;;;;5072438;28;20436;-48
2022/10/30 04:23:28;;;;;;;4.80;2.40;;;10.10;99.90;;;;;;5072028;28;20544;-50
2022/10/30 04:25:55;;;;;;;8.57;2.60;;;10.10;99.90;;;;;;5072205;28;20445;-48
2022/10/30 04:28:22;;;;;;;3.67;1.70;;;10.30;99.90;;;;;;5072174;28;20477;-48
2022/10/30 04:30:49;;;;;;;4.93;2.07;;;10.60;99.90;;;;;;5072587;28;20539;-48
2022/10/30 04:33:16;;;;;;;3.60;2.37;;;10.80;99.90;;;;;;5071898;28;20552;-48
2022/10/30 04:35:43;;;;;;;6.60;2.80;;;10.70;99.90;;;;;;5071865;28;20453;-49
2022/10/30 04:38:13;;;;;;;6.20;2.70;;;10.60;99.90;;;;;;5071880;28;20441;-48
2022/10/30 04:40:41;;;;;;;6.27;2.60;;;10.40;99.90;;;;;;5072244;28;20507;-48
2022/10/30 04:43:09;;;;;;;5.87;2.57;;;10.50;99.90;;;;;;5071613;28;20461;-48
2022/10/30 04:45:37;;;;;;;9.00;2.10;;;10.40;99.90;;;;;;5072063;28;20993;-48
2022/10/30 04:48:06;;;;;;;6.20;2.53;;;10.50;99.90;;;;;;5071590;28;20555;-48
2022/10/30 04:50:33;;;;;;;5.40;2.60;;;10.60;99.90;;;;;;5071273;28;20452;-48
2022/10/30 04:53:02;;;;;;;5.63;2.20;;;10.70;99.90;;;;;;5071024;28;21005;-48
2022/10/30 04:55:30;;;;;;;6.60;2.60;;;10.80;99.90;;;;;;5071796;28;20531;-48
2022/10/30 04:57:58;;;;;;;3.97;2.50;;;10.70;99.90;;;;;;5071932;28;20444;-48
2022/10/30 05:00:26;;;;;;;6.70;4.37;;;10.70;99.90;;;;;;5071957;28;20536;-48
2022/10/30 05:02:53;;;;;;;6.33;3.00;;;10.60;99.90;;;;;;5071110;28;20465;-47
2022/10/30 05:05:20;;;;;;;8.90;2.60;;;10.50;99.90;;;;;;5071850;28;20814;-48
2022/10/30 05:07:47;;;;;;;5.03;2.80;;;10.00;99.90;;;;;;5071592;28;20479;-49
2022/10/30 05:10:15;;;;;;;5.30;2.73;;;10.00;99.90;;;;;;5071720;28;20535;-48
2022/10/30 05:12:45;;;;;;;6.77;3.10;;;10.30;99.90;;;;;;5071378;28;20469;-48
2022/10/30 05:15:13;;;;;;;9.00;2.40;;;10.50;99.90;;;;;;5071236;28;20445;-48
2022/10/30 05:17:40;;;;;;;9.13;3.40;;;10.00;99.90;;;;;;5071730;28;20535;-48
2022/10/30 05:20:08;;;;;;;6.20;3.03;;;10.30;99.90;;;;;;5071459;28;20531;-48
2022/10/30 05:22:35;;;;;;;4.07;2.43;;;10.30;99.90;;;;;;5071460;28;20444;-47
2022/10/30 05:25:02;;;;;;;5.20;3.77;;;10.40;99.90;;;;;;5071158;28;20451;-50
2022/10/30 05:27:29;;;;;;;6.37;2.73;;;10.50;99.90;;;;;;5071403;28;20532;-48
2022/10/30 05:29:57;;;;;;;9.80;2.80;;;10.60;99.90;;;;;;5071323;28;20887;-47
2022/10/30 05:32:24;;;;;;;8.23;2.80;;;10.60;99.90;;;;;;5071206;28;21062;-47
2022/10/30 05:34:50;;;;;;;7.10;3.23;;;10.60;99.90;;;;;;5071381;28;20448;-48
2022/10/30 05:37:17;;;;;;;4.30;2.30;;;10.70;99.90;;;;;;5071269;28;20532;-48
2022/10/30 05:39:44;;;;;;;4.53;3.00;;;10.70;99.90;;;;;;5071238;28;20516;-48
2022/10/30 05:42:11;;;;;;;8.50;3.00;;;10.60;99.90;;;;;;5071114;28;20527;-48
2022/10/30 05:44:38;;;;;;;8.10;3.07;;;10.30;99.90;;;;;;5070924;28;20475;-49
2022/10/30 05:47:06;;;;;;;4.43;2.43;;;10.10;99.90;;;;;;5071609;28;20459;-48
2022/10/30 05:49:33;;;;;;;8.33;2.80;;;10.20;99.90;;;;;;5070939;28;20563;-48
2022/10/30 05:52:00;;;;;;;8.83;3.20;;;10.30;99.90;;;;;;5070953;28;20531;-48
2022/10/30 05:54:26;;;;;;;6.63;3.10;;;10.10;99.90;;;;;;5070884;28;20476;-48
2022/10/30 05:56:53;;;;;;;4.10;2.60;;;10.30;99.90;;;;;;5071112;28;20541;-47
2022/10/30 05:59:20;;;;;;;9.03;3.47;;;10.50;99.90;;;;;;5071089;28;20441;-48
2022/10/30 06:01:47;;;;;;;6.87;3.13;;;10.50;99.90;;;;;;5071070;28;20441;-48
2022/10/30 06:04:15;;;;;;;8.97;3.73;;;10.40;99.90;;;;;;5072615;28;20556;-46
2022/10/30 06:06:42;;;;;;;10.37;3.53;;;10.70;99.90;;;;;;5074858;28;20522;-47
2022/10/30 06:09:09;;;;;;;8.10;4.23;;;10.60;99.90;;;;;;5074384;28;20555;-48
2022/10/30 06:11:36;;;;;;;6.60;3.30;;;10.60;99.90;;;;;;5074682;28;20987;-48
2022/10/30 06:14:02;;;;;;;6.20;3.17;;;10.60;99.90;;;;;;5074755;28;20555;-48
2022/10/30 06:16:29;;;;;;;4.47;2.90;;;10.60;99.90;;;;;;5074896;28;20528;-48
2022/10/30 06:18:56;;;;;;;8.17;3.80;;;10.50;99.90;;;;;;5074834;28;20477;-48
2022/10/30 06:21:24;;;;;;;5.40;3.10;;;10.60;99.90;;;;;;5074572;28;20459;-50
2022/10/30 06:23:51;;;;;;;9.00;4.03;;;10.40;99.90;;;;;;5074244;28;20891;-49
2022/10/30 06:26:18;;;;;;;5.80;3.37;;;10.10;99.90;;;;;;5074508;28;20948;-48
2022/10/30 06:28:45;;;;;;;7.90;3.57;;;10.30;99.90;;;;;;5074320;28;20476;-48
2022/10/30 06:31:12;;;;;;;4.57;2.80;;;10.50;99.90;;;;;;5074551;28;20532;-49
2022/10/30 06:33:39;;;;;;;7.23;3.73;;;10.00;99.90;;;;;;5074250;28;20973;-47
2022/10/30 06:36:06;;;;;;;5.73;3.20;;;10.10;99.90;;;;;;5074715;28;20539;-48
2022/10/30 06:38:34;;;;;;;8.60;3.23;;;10.20;99.90;;;;;;5074436;28;20443;-48
2022/10/30 06:41:01;;;;;;;11.73;4.20;;;10.30;99.90;;;;;;5074334;28;20543;-48
2022/10/30 06:43:28;;;;;;;11.07;3.97;;;10.00;99.90;;;;;;5074148;28;20468;-47
2022/10/30 06:45:57;;;;;;;8.63;2.87;;;10.00;99.90;;;;;;5074432;28;20450;-50
2022/10/30 06:48:23;;;;;;;6.53;3.20;;;10.10;99.90;;;;;;5074158;28;20837;-48
2022/10/30 06:50:54;;;;;;;6.77;3.90;;;10.00;99.90;;;;;;5074078;28;20459;-48
2022/10/30 06:53:21;;;;;;;8.50;3.43;;;10.20;99.90;;;;;;5073704;28;20477;-48
2022/10/30 06:55:56;;;;;;;8.83;3.23;;;10.20;99.90;;;;;;5073885;28;20951;-48
2022/10/30 06:58:23;;;;;;;3.97;2.57;;;10.00;99.90;;;;;;5074341;28;20451;-48
2022/10/30 07:00:50;;;;;;;7.32;3.22;;;10.30;99.90;;;;;;5073735;28;20525;-48
2022/10/30 07:03:17;;;;;;;9.60;5.87;;;10.50;99.90;;;;;;5073365;28;20254;-47
2022/10/30 07:05:44;;;;;;;10.77;6.10;;;10.60;99.90;;;;;;5073718;28;20985;-48
2022/10/30 07:08:11;;;;;;;9.47;7.70;;;10.60;99.90;;;;;;5073920;28;20442;-48
2022/10/30 07:10:38;;;;;;;11.87;7.97;;;10.50;99.90;;;;;;5073816;28;20448;-48
2022/10/30 07:13:06;;;;;;;9.60;7.10;;;10.50;99.90;;;;;;5073414;28;20467;-49
2022/10/30 07:15:33;;;;;;;5.90;4.90;;;10.60;99.90;;;;;;5073340;28;20469;-50
2022/10/30 07:18:01;;;;;;;7.20;5.70;;;10.50;99.90;;;;;;5074131;28;20440;-48
2022/10/30 07:20:30;;;;;;;6.07;4.13;;;10.50;99.90;;;;;;5073856;28;20957;-48
2022/10/30 07:22:57;;;;;;;8.13;3.93;;;10.60;99.90;;;;;;5073098;28;20465;-49
2022/10/30 07:25:24;;;;;;;10.17;5.03;;;10.60;99.90;;;;;;5073502;28;20874;-48
2022/10/30 07:27:53;;;;;;;9.80;3.80;;;10.60;99.90;;;;;;5073540;28;20441;-50
2022/10/30 07:30:23;;;;;;;9.73;4.70;;;10.60;99.90;;;;;;5073270;28;21081;-48
2022/10/30 07:32:57;;;;;;;10.90;5.60;;;10.60;99.90;;;;;;5073442;28;20548;-48
2022/10/30 07:35:24;;;;;;;7.17;5.30;;;10.60;99.90;;;;;;5073544;28;20437;-48
2022/10/30 07:37:51;;;;;;;17.80;6.37;;;10.60;99.90;;;;;;5073175;28;20449;-48
2022/10/30 07:40:18;;;;;;;8.40;6.17;;;10.30;99.90;;;;;;5073144;28;20440;-48
2022/10/30 07:42:45;;;;;;;7.20;4.80;;;9.80;99.90;;;;;;5073211;28;20461;-48
2022/10/30 07:45:12;;;;;;;8.17;4.67;;;9.70;99.90;;;;;;5073046;28;20437;-48
2022/10/30 07:47:41;;;;;;;9.00;6.47;;;10.10;99.90;;;;;;5073134;28;20860;-48
2022/10/30 07:50:09;;;;;;;8.40;5.30;;;9.80;99.90;;;;;;5072680;28;20481;-48
2022/10/30 07:52:36;;;;;;;8.30;6.10;;;9.80;99.90;;;;;;5073005;28;20484;-48
2022/10/30 07:55:03;;;;;;;8.57;4.43;;;10.10;99.90;;;;;;5074082;28;20547;-48
2022/10/30 07:57:32;;;;;;;9.33;4.07;;;10.10;99.90;;;;;;5073472;28;20443;-48
2022/10/30 07:59:59;;;;;;;7.47;5.40;;;10.00;99.90;;;;;;5072650;28;20933;-48
2022/10/30 08:02:25;;;;;;;8.80;5.77;;;10.20;99.90;;;;;;5072621;28;21013;-50
2022/10/30 08:04:54;;;;;;;10.17;5.13;;;10.40;99.90;;;;;;5072103;28;20532;-48
2022/10/30 08:07:20;;;;;;;7.40;3.53;;;10.40;99.90;;;;;;5073005;28;20475;-48
2022/10/30 08:09:48;;;;;;;7.20;3.13;;;10.30;99.90;;;;;;5072456;28;21206;-48
2022/10/30 08:12:15;;;;;;;7.77;4.90;;;10.40;99.90;;;;;;5072280;28;20490;-50
2022/10/30 08:14:42;;;;;;;16.70;7.40;;;10.70;99.90;;;;;;5072118;28;20552;-48
2022/10/30 08:17:09;;;;;;;18.10;11.83;;;10.50;99.90;;;;;;5072745;28;20527;-49
2022/10/30 08:19:36;;;;;;;11.70;8.53;;;10.40;99.90;;;;;;5072746;28;20487;-47
2022/10/30 08:22:04;;;;;;;13.37;9.73;;;10.50;99.90;;;;;;5072140;28;20453;-50
2022/10/30 08:24:31;;;;;;;10.87;4.50;;;10.50;99.90;;;;;;5071974;28;20461;-50
2022/10/30 08:26:58;;;;;;;5.57;3.40;;;10.40;99.90;;;;;;5071642;28;20536;-50
2022/10/30 08:29:25;;;;;;;12.17;4.70;;;10.40;99.90;;;;;;5072166;28;20487;-49
2022/10/30 08:31:52;;;;;;;6.63;5.10;;;10.60;99.90;;;;;;5072364;28;20445;-49
2022/10/30 08:34:19;;;;;;;6.50;4.13;;;10.70;99.90;;;;;;5071882;28;20555;-48
2022/10/30 08:36:48;;;;;;;7.67;5.50;;;10.80;99.90;;;;;;5071933;28;20469;-50
2022/10/30 08:39:16;;;;;;;10.03;6.10;;;10.90;99.90;;;;;;5071962;28;20827;-50
2022/10/30 08:41:43;;;;;;;9.80;5.57;;;11.00;99.90;;;;;;5071694;28;20531;-48
2022/10/30 08:44:10;;;;;;;8.37;5.10;;;11.10;99.90;;;;;;5071721;28;20561;-49
2022/10/30 08:46:37;;;;;;;10.53;5.10;;;11.10;99.90;;;;;;5072125;28;20584;-48
2022/10/30 08:49:04;;;;;;;8.67;4.27;;;11.20;99.90;;;;;;5071711;28;20469;-48
2022/10/30 08:51:32;;;;;;;12.53;4.40;;;11.20;99.90;;;;;;5071373;28;20935;-49
2022/10/30 08:53:59;;;;;;;7.33;4.10;;;11.30;99.90;;;;;;5071494;28;20882;-49
2022/10/30 08:56:27;;;;;;;9.23;4.17;;;11.50;99.90;;;;;;5072016;28;20442;-49
2022/10/30 08:58:54;;;;;;;10.70;3.73;;;11.60;99.90;;;;;;5071885;28;20534;-49
2022/10/30 09:01:21;;;;;;;5.27;3.20;;;11.60;99.90;;;;;;5071747;28;20521;-49
2022/10/30 09:03:48;;;;;;;9.87;3.47;;;11.60;99.90;;;;;;5070997;28;20543;-50
2022/10/30 09:06:15;;;;;;;5.20;3.77;;;11.60;99.90;;;;;;5071708;28;20444;-49
2022/10/30 09:08:42;;;;;;;6.20;4.33;;;11.70;99.90;;;;;;5071603;28;20441;-51
2022/10/30 09:11:08;;;;;;;5.90;4.27;;;11.80;99.90;;;;;;5071385;28;20447;-49
2022/10/30 09:13:37;;;;;;;8.57;4.33;;;11.90;99.90;;;;;;5071707;28;20630;-49
2022/10/30 09:16:04;;;;;;;7.23;4.50;;;12.00;99.90;;;;;;5071482;28;20473;-49
2022/10/30 09:18:31;;;;;;;7.23;4.30;;;12.10;99.90;;;;;;5071291;28;20443;-49
2022/10/30 09:20:58;;;;;;;13.97;8.80;;;12.20;99.90;;;;;;5071645;28;20442;-49
2022/10/30 09:23:25;;;;;;;9.93;6.40;;;12.40;99.90;;;;;;5071291;28;20548;-49
2022/10/30 09:25:52;;;;;;;10.13;4.80;;;12.50;99.90;;;;;;5071437;28;20522;-49
2022/10/30 09:28:18;;;;;;;8.73;4.40;;;12.60;99.90;;;;;;5071543;28;20846;-49
2022/10/30 09:30:51;;;;;;;11.57;3.70;;;12.70;99.90;;;;;;5071367;28;20479;-49
2022/10/30 09:33:18;;;;;;;5.33;3.20;;;12.80;99.90;;;;;;5071059;28;20474;-49
2022/10/30 09:35:45;;;;;;;6.73;3.60;;;12.90;99.90;;;;;;5071656;28;20459;-49
2022/10/30 09:38:12;;;;;;;4.77;3.03;;;13.00;99.90;;;;;;5073048;28;20530;-49
2022/10/30 09:40:59;;;;;;;9.10;3.23;;;13.10;99.90;;;;;;5075598;28;20519;-49
2022/10/30 09:43:37;;;;;;;8.77;3.87;;;13.20;99.90;;;;;;5075119;28;20466;-50
2022/10/30 09:46:27;;;;;;;8.60;3.50;;;13.30;99.90;;;;;;5075314;28;20443;-49
2022/10/30 09:49:11;;;;;;;6.50;3.10;;;13.40;99.90;;;;;;5075418;28;20479;-49
2022/10/30 09:52:00;;;;;;;5.90;2.73;;;13.50;99.90;;;;;;5075012;28;20529;-50
2022/10/30 09:54:39;;;;;;;6.07;2.53;;;13.60;99.90;;;;;;5074995;28;20472;-52
2022/10/30 09:57:15;;;;;;;14.80;3.77;;;13.70;99.90;;;;;;5075098;28;20443;-49
2022/10/30 09:59:52;;;;;;;6.53;3.30;;;13.90;99.90;;;;;;5075099;28;20440;-49
2022/10/30 10:02:34;;;;;;;7.40;3.40;;;13.90;99.90;;;;;;5074934;28;20531;-52
2022/10/30 10:05:11;;;;;;;9.47;3.07;;;13.90;99.90;;;;;;5074436;28;20446;-49
2022/10/30 10:07:42;;;;;;;5.80;2.80;;;14.00;99.90;;;;;;5074744;28;20447;-49
2022/10/30 10:10:15;;;;;;;10.97;3.73;;;14.10;99.90;;;;;;5074987;28;20485;-49
2022/10/30 10:12:45;;;;;;;5.00;3.30;;;14.20;99.90;;;;;;5074545;28;20972;-49
2022/10/30 10:15:31;;;;;;;5.70;3.20;;;14.20;99.90;;;;;;5074505;28;20447;-49
2022/10/30 10:18:03;;;;;;;5.00;3.23;;;14.30;99.90;;;;;;5074792;28;20436;-52
2022/10/30 10:20:36;;;;;;;6.47;3.83;;;14.50;99.90;;;;;;5074881;28;20559;-49
2022/10/30 10:23:14;;;;;;;6.70;3.57;;;14.40;99.90;;;;;;5074153;28;20544;-49
2022/10/30 10:25:49;;;;;;;9.47;2.90;;;14.60;99.90;;;;;;5074499;28;20527;-49
2022/10/30 10:28:30;;;;;;;6.67;3.60;;;14.60;99.90;;;;;;5074584;28;20448;-49
2022/10/30 10:31:05;;;;;;;10.33;3.77;;;14.70;99.90;;;;;;5074747;28;20571;-49
2022/10/30 10:33:49;;;;;;;7.20;2.70;;;14.70;99.90;;;;;;5074154;28;20559;-49
2022/10/30 10:36:26;;;;;;;4.10;2.80;;;14.80;99.90;;;;;;5074467;28;20531;-49
2022/10/30 10:39:13;;;;;;;7.70;3.23;;;15.00;99.90;;;;;;5074370;28;20611;-50
2022/10/30 10:42:02;;;;;;;8.27;3.83;;;15.00;99.90;;;;;;5074360;28;20531;-49
2022/10/30 10:44:42;;;;;;;9.53;3.03;;;15.00;99.90;;;;;;5073806;28;20460;-49
2022/10/30 10:47:26;;;;;;;6.37;3.93;;;15.10;99.90;;;;;;5074297;28;20528;-48
2022/10/30 10:50:14;;;;;;;6.47;3.40;;;15.10;99.90;;;;;;5073293;28;20476;-49
2022/10/30 10:52:47;;;;;;;4.63;3.30;;;15.10;99.90;;;;;;5073979;28;20467;-49
2022/10/30 10:55:17;;;;;;;8.43;3.93;;;15.10;99.90;;;;;;5074013;28;20531;-49
2022/10/30 10:57:45;;;;;;;10.90;3.40;;;15.40;99.90;;;;;;5074267;28;20882;-49
2022/10/30 11:00:16;;;;;;;10.77;2.97;;;15.40;99.90;;;;;;5074081;28;20801;-49
2022/10/30 11:02:49;;;;;;;7.40;3.83;;;15.50;99.90;;;;;;5073599;28;20467;-52
2022/10/30 11:05:25;;;;;;;7.23;3.07;;;15.60;99.90;;;;;;5074315;28;20523;-49
2022/10/30 11:07:54;;;;;;;3.60;2.83;;;15.70;99.90;;;;;;5073768;28;20891;-49
2022/10/30 11:10:22;;;;;;;4.50;3.17;;;15.70;99.90;;;;;;5073780;28;20468;-49
2022/10/30 11:12:49;;;;;;;9.77;2.87;;;15.80;99.90;;;;;;5073502;28;20472;-49
2022/10/30 11:15:26;;;;;;;5.87;2.87;;;15.80;99.90;;;;;;5073478;28;20447;-49
2022/10/30 11:17:59;;;;;;;7.03;3.30;;;16.00;99.90;;;;;;5073628;28;20451;-49
2022/10/30 11:20:40;;;;;;;7.00;3.50;;;16.10;99.90;;;;;;5073533;28;20972;-49
2022/10/30 11:23:46;;;;;;;7.00;3.00;;;16.30;99.90;;;;;;5073366;28;20556;-49
2022/10/30 11:26:31;;;;;;;5.37;2.60;;;16.30;99.90;;;;;;5053035;28;20824;-50
2022/10/30 11:29:03;;;;;;;9.33;3.60;;;16.30;99.90;;;;;;5073353;28;20437;-49
2022/10/30 11:31:34;;;;;;;5.10;2.90;;;16.20;99.90;;;;;;5073470;28;20469;-49
2022/10/30 11:34:20;;;;;;;5.33;3.00;;;16.30;99.90;;;;;;5073055;28;20853;-49
2022/10/30 11:36:49;;;;;;;5.90;3.10;;;16.40;99.90;;;;;;5073511;28;20447;-52
2022/10/30 11:39:18;;;;;;;8.20;3.07;;;16.40;99.90;;;;;;5073443;28;20652;-49
2022/10/30 11:41:54;;;;;;;7.83;3.17;;;16.40;99.90;;;;;;5073319;28;20437;-50
2022/10/30 11:44:22;;;;;;;7.70;3.80;;;16.50;99.90;;;;;;5072753;28;20471;-49
2022/10/30 11:46:49;;;;;;;5.80;2.87;;;16.60;99.90;;;;;;5072937;28;20527;-50
2022/10/30 11:49:33;;;;;;;8.70;3.40;;;16.70;99.90;;;;;;5073048;28;20447;-50
2022/10/30 11:52:02;;;;;;;5.03;2.80;;;16.70;99.90;;;;;;5072851;28;20811;-49
2022/10/30 11:54:28;;;;;;;6.60;3.57;;;16.80;99.90;;;;;;5072744;28;20564;-49
2022/10/30 11:56:58;;;;;;;3.57;2.53;;;16.70;99.90;;;;;;5072926;28;20441;-49
2022/10/30 11:59:25;;;;;;;8.47;3.30;;;16.80;99.90;;;;;;5072652;28;20445;-51
2022/10/30 12:02:00;;;;;;;7.07;3.37;;;16.90;99.90;;;;;;5071377;28;20545;-49
2022/10/30 12:04:31;;;;;;;8.40;3.10;;;16.90;99.90;;;;;;5071977;28;20548;-52
2022/10/30 12:07:19;;;;;;;7.43;3.57;;;17.00;99.90;;;;;;5072474;28;20951;-49
2022/10/30 12:09:47;;;;;;;4.90;2.83;;;17.00;99.90;;;;;;5072489;28;20437;-49
2022/10/30 12:12:23;;;;;;;7.83;3.10;;;17.00;99.90;;;;;;5072423;28;20956;-49
2022/10/30 12:14:50;;;;;;;5.27;3.90;;;17.10;99.90;;;;;;5072357;28;20440;-49
2022/10/30 12:17:18;;;;;;;5.37;3.10;;;17.10;99.90;;;;;;5072462;28;20934;-49
2022/10/30 12:19:49;;;;;;;4.30;2.90;;;17.20;99.90;;;;;;5072439;28;21033;-49
2022/10/30 12:22:30;;;;;;;5.97;3.20;;;17.30;99.90;;;;;;5072457;28;20435;-49
2022/10/30 12:24:58;;;;;;;6.23;2.90;;;17.30;99.90;;;;;;5072278;28;20440;-49
2022/10/30 12:27:25;;;;;;;6.00;2.93;;;17.10;99.90;;;;;;5072462;28;20532;-49
2022/10/30 12:30:05;;;;;;;4.43;2.60;;;17.00;99.90;;;;;;5072080;28;20441;-49
2022/10/30 12:32:43;;;;;;;5.53;3.10;;;17.10;99.90;;;;;;5072379;28;20815;-49
2022/10/30 12:35:26;;;;;;;5.50;3.10;;;17.20;99.90;;;;;;5071861;28;20531;-49
2022/10/30 12:37:56;;;;;;;6.60;3.43;;;17.30;99.90;;;;;;5072088;28;20548;-50
2022/10/30 12:40:27;;;;;;;5.20;4.10;;;17.30;99.90;;;;;;5071847;28;20491;-50
2022/10/30 12:43:00;;;;;;;8.20;3.10;;;17.40;99.90;;;;;;5072015;28;20474;-49
2022/10/30 12:45:32;;;;;;;6.30;3.30;;;17.40;99.90;;;;;;5072285;28;20441;-49
2022/10/30 12:48:03;;;;;;;5.43;3.43;;;17.70;99.90;;;;;;5072162;28;20451;-49
2022/10/30 12:50:37;;;;;;;8.70;3.33;;;17.80;99.90;;;;;;5071757;28;20478;-53
2022/10/30 12:53:21;;;;;;;7.97;3.00;;;17.70;99.90;;;;;;5071631;28;20579;-50
2022/10/30 12:55:51;;;;;;;4.63;3.17;;;17.80;99.90;;;;;;5071652;28;20467;-49
2022/10/30 12:58:27;;;;;;;6.53;3.60;;;17.80;99.90;;;;;;5071555;28;20539;-50
2022/10/30 13:00:58;;;;;;;6.17;3.87;;;17.80;99.90;;;;;;5071757;28;20783;-52